Accueil
METAR-TAF:

METAR-TAF

Aéroports :

Aéroport international Agostinho-Neto

Pointe-Noire, Congo

latitude: 04-49S, longitude: 011-54E, altitude: 17 m

Observation

Le bulletin a été fait il y a 58 minutes, à 18:00 UTC
Vent 5 kt de sud-ouest, variant entre sud/sud-ouest et ouest
Température 26°C
Humidité 84%
Pression 1009 hPa
Visibilité: 8000 m
Quelques nuages à une hauteur de 1000 ft
Nuages épars à une hauteur de 2300 ft

METAR: FCPP 221800Z 23005KT 200V270 8000 FEW010 SCT023 26/23 Q1009 NOSIG

Heure: 19:58 (18:58 UTC)

Prévision

Le bulletin a été fait il y a 1 heure et 58 minutes, à 17:00 UTC
Prévision valable du 22 à 18 UTC au 23 à 18 UTC
Vent 5 kt de sud/sud-ouest
Visibilité: 9000 m
Nuages épars à une hauteur de 2000 ft

TAF: FCPP 221700Z 2218/2318 20005KT 9000 SCT020

Observations et prévisions météorologiques de plus de 4000 aéroports (messages METAR et TAF).

Les stations disponibles sont représentées par des disques jaunes et rouges sur la carte.

Passer la souris dessus pour voir le nom de la station.

Cliquer dessus pour voir les observations et prévisions météorologiques.

Pour changer de carte: cliquez sur les boutons verts avec une croix noire pour zoomer, sur le bouton vert avec un tiret pour effectuer un zoom arrière, ou sur les flèches vertes pour les cartes adjacentes.


METAR-TAF: